Agua Clara, Brazil
Current Conditions -  °F | °C
As of 6:28 PM on Wednesday 26 Nov 2014 (Local Time) from SBCG Reporting Station
Broken Clouds Broken Clouds  
Wind Chill: 72°   Ceiling: 400
Heat Index: 72°   Visibility: 6mi
Dew Point: 68°   Wind: 9mph
Humidity: 88%   Direction: 340°NNW
Pressure: 29.8"   Gusts: NA
Location:  20.45°S, 52.88°W
Report Text: SBCG 262128Z 34008KT 9999 BKN004 SCT015 FEW045TCU 22/20 Q1009
Loading
Personal Weather Stations






























Interactive Weather Map New forecast layout! Learn more

10-Day Weather Forecast

Advertisements
Track Severe Weather on mobile